Time;durP1;ratioP1;P1;durP2;ratioP2;P2;SDS_P1;SDS_P2;PMS_P1;PMS_P2;Temp;Humidity;BMP_temperature;BMP_pressure;BME280_temperature;BME280_humidity;BME280_pressure;Samples;Min_cycle;Max_cycle;Signal;HPM_P1;HPM_P2
2023/10/21 00:02:22;;;;;;;72.20;50.00;;;18.70;99.90;;;;;;5069624;28;20037;-68
2023/10/21 00:04:48;;;;;;;76.78;50.45;;;18.60;99.90;;;;;;5068081;28;20055;-68
2023/10/21 00:07:13;;;;;;;64.35;49.40;;;18.00;99.90;;;;;;5068541;28;20044;-68
2023/10/21 00:09:39;;;;;;;73.60;51.05;;;17.70;99.90;;;;;;5067859;28;20508;-68
2023/10/21 00:12:07;;;;;;;69.82;48.97;;;19.00;99.90;;;;;;5067434;28;20040;-68
2023/10/21 00:14:34;;;;;;;70.15;49.20;;;17.70;99.90;;;;;;5068917;28;20032;-68
2023/10/21 00:16:59;;;;;;;72.13;50.28;;;18.60;99.90;;;;;;5055317;28;20128;-68
2023/10/21 00:19:25;;;;;;;73.03;49.90;;;18.10;99.90;;;;;;5048853;28;20195;-68
2023/10/21 00:21:53;;;;;;;76.88;49.72;;;18.80;99.90;;;;;;5062683;28;20080;-68
2023/10/21 00:24:19;;;;;;;74.95;50.25;;;17.70;99.90;;;;;;5068648;28;20083;-68
2023/10/21 00:26:48;;;;;;;76.05;50.50;;;17.80;99.90;;;;;;5058672;28;20111;-68
2023/10/21 00:29:15;;;;;;;69.15;49.63;;;18.60;99.90;;;;;;5048788;28;20477;-68
2023/10/21 00:31:43;;;;;;;69.35;49.92;;;18.30;99.90;;;;;;5060168;28;20036;-67
2023/10/21 00:34:09;;;;;;;65.93;49.40;;;18.60;99.90;;;;;;5056489;28;20094;-68
2023/10/21 00:36:34;;;;;;;73.78;50.58;;;18.70;99.90;;;;;;5061428;28;20036;-68
2023/10/21 00:39:01;;;;;;;73.35;50.65;;;18.00;99.90;;;;;;5068389;28;20056;-67
2023/10/21 00:41:27;;;;;;;74.35;50.63;;;17.80;99.90;;;;;;5068223;28;20052;-64
2023/10/21 00:43:53;;;;;;;71.88;50.05;;;17.80;99.90;;;;;;5059042;28;20056;-64
2023/10/21 00:46:18;;;;;;;73.68;51.65;;;17.80;99.90;;;;;;5057854;28;20040;-64
2023/10/21 00:48:48;;;;;;;70.90;50.63;;;17.80;99.90;;;;;;5068393;28;20090;-64
2023/10/21 00:51:15;;;;;;;72.90;49.97;;;17.80;99.90;;;;;;5067659;28;20040;-65
2023/10/21 00:53:41;;;;;;;70.93;49.00;;;18.70;99.90;;;;;;5065675;28;20045;-65
2023/10/21 00:56:07;;;;;;;68.65;49.75;;;17.80;99.90;;;;;;5068168;28;20086;-64
2023/10/21 00:58:34;;;;;;;73.70;49.20;;;18.10;99.90;;;;;;5068596;28;20048;-65
2023/10/21 01:01:03;;;;;;;66.78;47.72;;;18.40;99.90;;;;;;5067870;28;20115;-65
2023/10/21 01:03:29;;;;;;;73.82;48.58;;;17.90;99.90;;;;;;5082582;28;20049;-64
2023/10/21 01:05:56;;;;;;;71.13;49.83;;;18.60;99.90;;;;;;5068954;28;20128;-65
2023/10/21 01:08:21;;;;;;;80.07;49.38;;;18.40;99.90;;;;;;5067793;28;20045;-64
2023/10/21 01:10:47;;;;;;;63.33;47.47;;;19.00;99.90;;;;;;5067249;28;20062;-64
2023/10/21 01:13:13;;;;;;;82.10;52.33;;;18.60;99.90;;;;;;5067256;28;20044;-65
2023/10/21 01:15:38;;;;;;;76.80;49.08;;;18.80;99.90;;;;;;5047637;28;20110;-64
2023/10/21 01:18:06;;;;;;;64.93;47.80;;;18.80;99.90;;;;;;5047653;28;20455;-64
2023/10/21 01:20:32;;;;;;;72.55;49.45;;;18.70;99.90;;;;;;5066848;28;20056;-63
2023/10/21 01:22:58;;;;;;;70.55;48.10;;;18.70;99.90;;;;;;5067328;28;20059;-65
2023/10/21 01:25:25;;;;;;;72.95;48.80;;;18.50;99.90;;;;;;5048937;28;20056;-64
2023/10/21 01:27:54;;;;;;;72.50;47.45;;;18.30;99.90;;;;;;5047704;28;20037;-63
2023/10/21 01:30:20;;;;;;;74.82;47.35;;;17.80;99.90;;;;;;5051583;28;20068;-64
2023/10/21 01:32:47;;;;;;;75.13;46.67;;;18.10;99.90;;;;;;5066043;28;20036;-63
2023/10/21 01:35:13;;;;;;;69.47;45.85;;;18.70;99.90;;;;;;5062883;28;20482;-64
2023/10/21 01:37:38;;;;;;;69.60;44.05;;;18.80;99.90;;;;;;5067132;28;20093;-64
2023/10/21 01:40:04;;;;;;;60.70;45.78;;;17.50;99.90;;;;;;5066935;28;20089;-65
2023/10/21 01:42:32;;;;;;;75.07;46.25;;;17.70;99.90;;;;;;5067349;28;20036;-64
2023/10/21 01:44:57;;;;;;;70.75;47.35;;;18.40;99.90;;;;;;5053035;28;20094;-64
2023/10/21 01:47:23;;;;;;;72.55;46.72;;;18.30;99.90;;;;;;5045719;28;20441;-64
2023/10/21 01:49:49;;;;;;;64.10;46.35;;;18.00;99.90;;;;;;5047390;28;20606;-65
2023/10/21 01:52:14;;;;;;;61.42;46.75;;;17.40;99.90;;;;;;5078271;28;20097;-65
2023/10/21 01:54:46;;;;;;;69.03;46.83;;;17.10;99.90;;;;;;5058769;28;20044;-64
2023/10/21 01:57:11;;;;;;;69.65;45.63;;;17.30;99.90;;;;;;5066936;28;20465;-66
2023/10/21 01:59:41;;;;;;;76.93;46.38;;;17.50;99.90;;;;;;5066699;28;20040;-65
2023/10/21 02:02:07;;;;;;;73.05;46.05;;;17.60;99.90;;;;;;5067229;28;20040;-65
2023/10/21 02:04:32;;;;;;;70.40;44.53;;;17.70;99.90;;;;;;5066465;28;20508;-64
2023/10/21 02:06:58;;;;;;;67.53;43.55;;;17.40;99.90;;;;;;5067773;28;20067;-64
2023/10/21 02:09:23;;;;;;;67.05;44.60;;;17.70;99.90;;;;;;5066907;28;20442;-65
2023/10/21 02:11:49;;;;;;;80.38;47.40;;;17.60;99.90;;;;;;5067189;28;20048;-66
2023/10/21 02:14:15;;;;;;;75.28;46.17;;;17.40;99.90;;;;;;5059671;28;20037;-65
2023/10/21 02:16:40;;;;;;;71.78;45.38;;;17.50;99.90;;;;;;5046876;28;20514;-65
2023/10/21 02:19:06;;;;;;;74.57;47.08;;;17.50;99.90;;;;;;5046840;28;20523;-65
2023/10/21 02:21:32;;;;;;;70.35;46.60;;;16.60;99.90;;;;;;5063534;28;20539;-64
2023/10/21 02:23:57;;;;;;;74.82;46.58;;;17.40;99.90;;;;;;5062497;28;20476;-65
2023/10/21 02:26:23;;;;;;;82.45;45.17;;;17.00;99.90;;;;;;5046895;28;20127;-65
2023/10/21 02:28:48;;;;;;;79.68;44.97;;;17.00;99.90;;;;;;5054369;28;20052;-64
2023/10/21 02:31:14;;;;;;;76.80;44.80;;;16.70;99.90;;;;;;5065098;28;20040;-65
2023/10/21 02:33:40;;;;;;;73.90;43.13;;;17.30;99.90;;;;;;5064754;28;20587;-65
2023/10/21 02:36:05;;;;;;;73.03;43.00;;;17.50;99.90;;;;;;5052336;28;20078;-66
2023/10/21 02:38:31;;;;;;;66.32;42.28;;;17.40;99.90;;;;;;5067166;28;20494;-64
2023/10/21 02:40:56;;;;;;;66.97;40.72;;;16.70;99.90;;;;;;5066669;28;20155;-65
2023/10/21 02:43:22;;;;;;;58.50;40.05;;;17.30;99.90;;;;;;5066933;28;20044;-65
2023/10/21 02:45:48;;;;;;;62.22;40.15;;;17.30;99.90;;;;;;5065990;28;20054;-65
2023/10/21 02:48:14;;;;;;;59.20;39.10;;;16.80;99.90;;;;;;5056608;28;20044;-65
2023/10/21 02:50:40;;;;;;;59.03;38.65;;;16.70;99.90;;;;;;5056370;28;20549;-65
2023/10/21 02:53:06;;;;;;;55.78;39.42;;;17.50;99.90;;;;;;5065770;28;20101;-65
2023/10/21 02:55:32;;;;;;;59.00;39.55;;;16.50;99.90;;;;;;5058040;28;20232;-64
2023/10/21 02:57:57;;;;;;;63.83;41.30;;;17.40;99.90;;;;;;5066789;28;20494;-64
2023/10/21 03:00:23;;;;;;;59.67;40.75;;;17.20;99.90;;;;;;5065003;28;20530;-65
2023/10/21 03:02:49;;;;;;;61.53;41.63;;;16.90;99.90;;;;;;5065094;28;20044;-67
2023/10/21 03:05:18;;;;;;;62.15;39.53;;;16.60;99.90;;;;;;5065077;28;20052;-67
2023/10/21 03:07:44;;;;;;;62.65;40.00;;;17.00;99.90;;;;;;5066202;28;20122;-67
2023/10/21 03:10:10;;;;;;;56.95;41.55;;;17.70;99.90;;;;;;5069368;28;20087;-67
2023/10/21 03:12:36;;;;;;;59.08;41.22;;;17.10;99.90;;;;;;5070113;28;20049;-67
2023/10/21 03:15:02;;;;;;;56.40;39.50;;;16.80;99.90;;;;;;5060995;28;20158;-67
2023/10/21 03:17:28;;;;;;;53.05;41.10;;;17.00;99.90;;;;;;5068070;28;20052;-67
2023/10/21 03:19:54;;;;;;;59.33;42.40;;;17.70;99.90;;;;;;5069305;28;20060;-67
2023/10/21 03:22:20;;;;;;;50.45;40.05;;;17.30;99.90;;;;;;5069858;28;20051;-67
2023/10/21 03:24:46;;;;;;;59.05;41.83;;;17.40;99.90;;;;;;5069259;28;20040;-67
2023/10/21 03:27:13;;;;;;;58.95;42.35;;;17.40;99.90;;;;;;5069540;28;20541;-67
2023/10/21 03:29:39;;;;;;;56.45;40.00;;;16.70;99.90;;;;;;5069822;28;20094;-67
2023/10/21 03:32:05;;;;;;;60.28;42.20;;;16.90;99.90;;;;;;5069440;28;20048;-66
2023/10/21 03:34:34;;;;;;;51.08;40.85;;;16.90;99.90;;;;;;5066238;28;20037;-67
2023/10/21 03:37:00;;;;;;;66.15;40.63;;;17.50;99.90;;;;;;5063198;28;20076;-67
2023/10/21 03:39:26;;;;;;;53.90;38.42;;;17.20;99.90;;;;;;5069525;28;20041;-67
2023/10/21 03:41:52;;;;;;;57.10;38.38;;;17.10;99.90;;;;;;5066956;28;20386;-68
2023/10/21 03:44:18;;;;;;;46.10;37.65;;;17.60;99.90;;;;;;5067422;28;20391;-67
2023/10/21 03:46:44;;;;;;;50.25;41.83;;;17.70;99.90;;;;;;5060037;28;20033;-67
2023/10/21 03:49:09;;;;;;;53.65;39.53;;;18.10;99.90;;;;;;5051517;28;20037;-67
2023/10/21 03:51:35;;;;;;;47.45;38.28;;;17.90;99.90;;;;;;5063941;28;20048;-67
2023/10/21 03:54:01;;;;;;;48.00;37.25;;;17.90;99.90;;;;;;5068948;28;20605;-67
2023/10/21 03:56:27;;;;;;;52.63;37.78;;;17.00;99.90;;;;;;5058059;28;20113;-66
2023/10/21 03:58:53;;;;;;;47.30;37.13;;;17.90;99.90;;;;;;5069310;28;20044;-67
2023/10/21 04:01:20;;;;;;;46.88;37.65;;;17.20;99.90;;;;;;5067200;28;20051;-67
2023/10/21 04:03:46;;;;;;;51.78;38.80;;;17.20;99.90;;;;;;5068680;28;20067;-66
2023/10/21 04:06:13;;;;;;;51.83;38.40;;;17.40;99.90;;;;;;5055914;28;20430;-67
2023/10/21 04:08:39;;;;;;;52.58;37.60;;;17.80;99.90;;;;;;5067463;28;20055;-67
2023/10/21 04:11:05;;;;;;;44.03;35.28;;;17.00;99.90;;;;;;5068668;28;20084;-67
2023/10/21 04:13:31;;;;;;;55.45;40.47;;;17.40;99.90;;;;;;5069460;28;20056;-64
2023/10/21 04:15:58;;;;;;;47.80;37.97;;;17.60;99.90;;;;;;5067901;28;20041;-64
2023/10/21 04:18:23;;;;;;;50.35;37.85;;;17.70;99.90;;;;;;5069302;28;20438;-66
2023/10/21 04:20:49;;;;;;;47.42;37.47;;;17.40;99.90;;;;;;5068867;28;20056;-65
2023/10/21 04:23:14;;;;;;;45.67;37.47;;;16.90;99.90;;;;;;5069279;28;20056;-66
2023/10/21 04:25:40;;;;;;;50.88;37.63;;;16.90;99.90;;;;;;5068428;28;20093;-65
2023/10/21 04:28:05;;;;;;;50.03;37.10;;;16.80;99.90;;;;;;5069378;28;20045;-65
2023/10/21 04:30:31;;;;;;;48.72;36.72;;;16.60;99.90;;;;;;5068053;28;20590;-65
2023/10/21 04:32:57;;;;;;;49.30;36.83;;;16.90;99.90;;;;;;5068886;28;20048;-65
2023/10/21 04:35:22;;;;;;;48.85;37.80;;;16.70;99.90;;;;;;5068282;28;20040;-64
2023/10/21 04:37:48;;;;;;;51.08;36.83;;;16.60;99.90;;;;;;5069132;28;20253;-65
2023/10/21 04:40:14;;;;;;;48.42;37.58;;;16.60;99.90;;;;;;5067950;28;20880;-65
2023/10/21 04:42:40;;;;;;;54.75;37.15;;;16.60;99.90;;;;;;5068754;28;20036;-65
2023/10/21 04:45:09;;;;;;;49.97;38.53;;;16.70;99.90;;;;;;5062298;28;20036;-65
2023/10/21 04:47:34;;;;;;;53.28;38.95;;;16.70;99.90;;;;;;5048446;28;20087;-64
2023/10/21 04:50:00;;;;;;;51.38;40.10;;;16.40;99.90;;;;;;5061415;28;20036;-66
2023/10/21 04:52:26;;;;;;;47.03;37.03;;;17.30;99.90;;;;;;5067175;28;20044;-65
2023/10/21 04:54:51;;;;;;;47.08;36.75;;;16.70;99.90;;;;;;5065116;28;20498;-65
2023/10/21 04:57:17;;;;;;;44.88;35.70;;;16.70;99.90;;;;;;5060244;28;20414;-64
2023/10/21 04:59:42;;;;;;;41.90;36.03;;;17.00;99.90;;;;;;5067929;28;20722;-66
2023/10/21 05:02:08;;;;;;;42.20;35.70;;;16.90;99.90;;;;;;5068391;28;20098;-64
2023/10/21 05:04:37;;;;;;;44.88;35.10;;;16.80;99.90;;;;;;5068107;28;20105;-64
2023/10/21 05:07:02;;;;;;;48.42;35.15;;;17.10;99.90;;;;;;5068171;28;20054;-65
2023/10/21 05:09:29;;;;;;;43.25;35.78;;;17.40;99.90;;;;;;5067590;28;20495;-65
2023/10/21 05:11:54;;;;;;;48.42;34.33;;;16.50;99.90;;;;;;5068005;28;20044;-64
2023/10/21 05:14:20;;;;;;;46.60;34.33;;;16.60;99.90;;;;;;5068152;28;20041;-65
2023/10/21 05:16:46;;;;;;;45.67;34.88;;;17.10;99.90;;;;;;5066086;28;20049;-64
2023/10/21 05:19:12;;;;;;;45.42;34.85;;;16.40;99.90;;;;;;5067473;28;20529;-65
2023/10/21 05:21:37;;;;;;;38.42;34.05;;;16.50;99.90;;;;;;5068077;28;20052;-64
2023/10/21 05:24:03;;;;;;;45.92;35.30;;;16.50;99.90;;;;;;5067338;28;20093;-67
2023/10/21 05:26:29;;;;;;;38.72;32.13;;;17.10;99.90;;;;;;5066321;28;20125;-67
2023/10/21 05:28:55;;;;;;;41.88;32.08;;;17.10;99.90;;;;;;5067322;28;20056;-67
2023/10/21 05:31:21;;;;;;;40.63;33.80;;;17.30;99.90;;;;;;5066373;28;20047;-66
2023/10/21 05:33:46;;;;;;;40.67;33.30;;;17.00;99.90;;;;;;5067414;28;20050;-66
2023/10/21 05:36:12;;;;;;;42.58;33.53;;;16.40;99.90;;;;;;5056267;28;20530;-67
2023/10/21 05:38:38;;;;;;;39.13;33.63;;;17.40;99.90;;;;;;5062161;28;20047;-67
2023/10/21 05:41:04;;;;;;;41.78;33.55;;;17.10;99.90;;;;;;5067109;28;20028;-67
2023/10/21 05:43:29;;;;;;;38.45;34.38;;;16.80;99.90;;;;;;5067010;28;20028;-66
2023/10/21 05:45:55;;;;;;;41.38;34.45;;;16.50;99.90;;;;;;5067174;28;20052;-66
2023/10/21 05:48:20;;;;;;;43.67;35.42;;;17.40;99.90;;;;;;5054696;28;20038;-67
2023/10/21 05:50:47;;;;;;;40.53;33.80;;;16.30;99.90;;;;;;5051423;28;20421;-67
2023/10/21 05:53:12;;;;;;;46.35;34.72;;;16.80;99.90;;;;;;5066542;28;20044;-66
2023/10/21 05:55:44;;;;;;;39.03;34.92;;;16.40;99.90;;;;;;5067251;28;20403;-67
2023/10/21 05:58:10;;;;;;;41.78;35.05;;;16.60;99.90;;;;;;5066483;28;20032;-67
2023/10/21 06:00:36;;;;;;;38.35;34.25;;;16.70;99.90;;;;;;5066949;28;20037;-66
2023/10/21 06:03:02;;;;;;;40.35;35.95;;;16.40;99.90;;;;;;5066937;28;20029;-67
2023/10/21 06:05:28;;;;;;;38.75;34.47;;;16.60;99.90;;;;;;5067120;28;20044;-67
2023/10/21 06:07:54;;;;;;;41.22;35.00;;;17.50;99.90;;;;;;5063445;28;20075;-66
2023/10/21 06:10:20;;;;;;;38.35;34.20;;;16.30;99.90;;;;;;5052141;28;20124;-67
2023/10/21 06:12:46;;;;;;;43.67;33.95;;;16.70;99.90;;;;;;5064700;28;20203;-67
2023/10/21 06:15:12;;;;;;;38.38;32.25;;;17.20;99.90;;;;;;5062537;28;20119;-67
2023/10/21 06:17:37;;;;;;;42.85;33.22;;;17.00;99.90;;;;;;5063190;28;20111;-66
2023/10/21 06:20:03;;;;;;;38.70;34.65;;;16.30;99.90;;;;;;5080857;28;20052;-67
2023/10/21 06:22:29;;;;;;;38.40;34.30;;;16.60;99.90;;;;;;5067590;28;20048;-67
2023/10/21 06:24:55;;;;;;;43.88;36.53;;;16.70;99.90;;;;;;5064189;28;20071;-67
2023/10/21 06:27:21;;;;;;;43.28;35.75;;;17.10;99.90;;;;;;5063480;28;20129;-67
2023/10/21 06:29:47;;;;;;;42.08;36.45;;;17.40;99.90;;;;;;5080904;28;20049;-67
2023/10/21 06:32:13;;;;;;;39.15;34.63;;;16.80;99.90;;;;;;5065895;28;20410;-67
2023/10/21 06:34:39;;;;;;;43.88;37.20;;;16.20;99.90;;;;;;5067157;28;20115;-65
2023/10/21 06:37:05;;;;;;;44.67;37.83;;;16.90;99.90;;;;;;5063773;28;20049;-65
2023/10/21 06:39:31;;;;;;;50.10;39.63;;;17.50;99.90;;;;;;5065447;28;20074;-66
2023/10/21 06:41:57;;;;;;;42.75;38.30;;;17.60;99.90;;;;;;5066609;28;20044;-64
2023/10/21 06:44:23;;;;;;;49.05;41.78;;;16.80;99.90;;;;;;5067299;28;20047;-65
2023/10/21 06:46:49;;;;;;;46.33;41.30;;;18.00;99.90;;;;;;5070642;28;20121;-65
2023/10/21 06:49:15;;;;;;;44.55;39.78;;;16.70;99.90;;;;;;5067026;28;20135;-65
2023/10/21 06:51:41;;;;;;;46.25;41.22;;;17.10;99.90;;;;;;5068322;28;20082;-66
2023/10/21 06:54:06;;;;;;;47.47;42.25;;;17.20;99.90;;;;;;5070604;28;20453;-65
2023/10/21 06:56:32;;;;;;;54.03;41.42;;;17.20;99.90;;;;;;5071053;28;20078;-65
2023/10/21 06:58:59;;;;;;;50.53;42.42;;;17.00;99.90;;;;;;5068457;28;20037;-64
2023/10/21 07:01:25;;;;;;;49.20;43.15;;;17.70;99.90;;;;;;5069411;28;20044;-65
2023/10/21 07:03:50;;;;;;;48.97;42.22;;;17.20;99.90;;;;;;5072816;28;20042;-66
2023/10/21 07:06:20;;;;;;;46.30;41.33;;;17.70;99.90;;;;;;5066764;28;20033;-66
2023/10/21 07:08:46;;;;;;;47.10;41.78;;;18.10;99.90;;;;;;5067172;28;20921;-66
2023/10/21 07:11:12;;;;;;;50.30;40.60;;;18.50;99.90;;;;;;5068053;28;20075;-65
2023/10/21 07:13:38;;;;;;;47.00;40.75;;;17.40;99.90;;;;;;5066404;28;20055;-65
2023/10/21 07:16:10;;;;;;;52.92;41.42;;;17.50;99.90;;;;;;5068935;28;20037;-66
2023/10/21 07:18:38;;;;;;;49.42;42.08;;;17.70;99.90;;;;;;5069018;28;20045;-65
2023/10/21 07:21:04;;;;;;;51.55;42.78;;;17.80;99.90;;;;;;5068130;28;20083;-65
2023/10/21 07:23:31;;;;;;;51.70;42.08;;;17.40;99.90;;;;;;5069011;28;20083;-65
2023/10/21 07:25:57;;;;;;;48.72;41.53;;;18.60;99.90;;;;;;5067778;28;20044;-65
2023/10/21 07:28:22;;;;;;;48.55;40.60;;;18.10;99.90;;;;;;5061582;28;20041;-65
2023/10/21 07:30:48;;;;;;;55.75;44.03;;;18.70;99.90;;;;;;5060059;28;20123;-65
2023/10/21 07:33:14;;;;;;;59.72;41.33;;;18.90;99.90;;;;;;5068912;28;20052;-65
2023/10/21 07:35:40;;;;;;;53.00;42.88;;;18.80;99.90;;;;;;5069146;28;20036;-65
2023/10/21 07:38:05;;;;;;;47.85;40.03;;;18.40;99.90;;;;;;5067946;28;20032;-65
2023/10/21 07:40:31;;;;;;;52.92;42.05;;;18.90;99.90;;;;;;5066874;28;20394;-64
2023/10/21 07:42:58;;;;;;;49.00;41.03;;;18.40;99.90;;;;;;5065092;28;20047;-65
2023/10/21 07:45:24;;;;;;;51.03;42.70;;;18.30;99.90;;;;;;5068395;28;20358;-65
2023/10/21 07:47:50;;;;;;;51.28;41.13;;;18.20;99.90;;;;;;5063965;28;20513;-64
2023/10/21 07:50:17;;;;;;;54.70;40.30;;;19.00;99.90;;;;;;5067632;28;20075;-65
2023/10/21 07:52:43;;;;;;;49.22;41.63;;;18.60;99.90;;;;;;5069142;28;20812;-65
2023/10/21 07:55:12;;;;;;;51.80;40.83;;;19.50;99.90;;;;;;5067199;28;20613;-64
2023/10/21 07:57:38;;;;;;;55.05;44.53;;;18.50;99.90;;;;;;5065423;28;20063;-64
2023/10/21 08:00:05;;;;;;;49.78;42.65;;;18.40;99.90;;;;;;5066969;28;20043;-64
2023/10/21 08:02:30;;;;;;;52.95;43.72;;;18.90;99.90;;;;;;5067846;28;20040;-65
2023/10/21 08:04:56;;;;;;;47.42;42.33;;;20.00;99.90;;;;;;5066566;28;20040;-64
2023/10/21 08:07:22;;;;;;;48.03;41.92;;;19.30;99.90;;;;;;5083876;28;20040;-65
2023/10/21 08:09:48;;;;;;;45.65;40.20;;;20.00;99.90;;;;;;5066536;28;20040;-63
2023/10/21 08:12:14;;;;;;;44.35;39.45;;;19.40;99.90;;;;;;5066471;28;20486;-63
2023/10/21 08:14:40;;;;;;;51.45;43.00;;;18.90;99.90;;;;;;5065536;28;20065;-63
2023/10/21 08:17:07;;;;;;;48.85;42.13;;;20.00;99.90;;;;;;5067252;28;20064;-63
2023/10/21 08:19:33;;;;;;;49.80;44.10;;;19.70;99.90;;;;;;5061833;28;20107;-65
2023/10/21 08:22:00;;;;;;;48.20;43.17;;;20.00;99.90;;;;;;5067346;28;20052;-64
2023/10/21 08:24:26;;;;;;;51.00;45.10;;;19.30;99.90;;;;;;5066416;28;20071;-63
2023/10/21 08:26:53;;;;;;;48.70;43.40;;;19.70;99.90;;;;;;5065815;28;20060;-64
2023/10/21 08:29:20;;;;;;;46.88;41.85;;;19.90;99.90;;;;;;5063320;28;20489;-64
2023/10/21 08:31:48;;;;;;;47.20;42.20;;;20.00;99.90;;;;;;5067334;28;20024;-64
2023/10/21 08:34:14;;;;;;;46.78;42.03;;;19.80;99.90;;;;;;5067773;28;20102;-63
2023/10/21 08:36:41;;;;;;;45.50;40.90;;;19.50;99.90;;;;;;5067872;28;20040;-64
2023/10/21 08:39:07;;;;;;;48.78;43.30;;;19.50;99.90;;;;;;5066763;28;20086;-64
2023/10/21 08:41:37;;;;;;;45.92;41.22;;;20.00;99.90;;;;;;5066429;28;20119;-64
2023/10/21 08:44:05;;;;;;;50.20;41.53;;;19.90;99.90;;;;;;5067626;28;20466;-64
2023/10/21 08:46:32;;;;;;;44.55;39.95;;;19.90;99.90;;;;;;5064594;28;20488;-65
2023/10/21 08:48:58;;;;;;;46.97;41.08;;;19.90;99.90;;;;;;5066700;28;20040;-63
2023/10/21 08:51:26;;;;;;;47.22;42.35;;;19.50;99.90;;;;;;5068194;28;20043;-64
2023/10/21 08:53:59;;;;;;;47.78;42.45;;;19.80;99.90;;;;;;5065809;28;20520;-69
2023/10/21 08:56:27;;;;;;;47.25;42.08;;;19.70;99.90;;;;;;5065521;28;20036;-69
2023/10/21 08:58:54;;;;;;;50.80;41.55;;;19.90;99.90;;;;;;5064483;28;20040;-69
2023/10/21 09:01:20;;;;;;;45.83;41.03;;;19.50;99.90;;;;;;5065460;28;20457;-69
2023/10/21 09:03:46;;;;;;;44.47;39.88;;;19.50;99.90;;;;;;5067206;28;20055;-69
2023/10/21 09:06:12;;;;;;;46.63;39.67;;;19.80;99.90;;;;;;5064574;28;20536;-69
2023/10/21 09:08:42;;;;;;;45.67;41.13;;;19.80;99.90;;;;;;5067502;28;20079;-69
2023/10/21 09:11:15;;;;;;;45.75;41.10;;;19.60;99.90;;;;;;5066473;28;20068;-69
2023/10/21 09:13:41;;;;;;;46.92;40.97;;;19.90;99.90;;;;;;5067084;28;20479;-68
2023/10/21 09:16:31;;;;;;;46.25;41.42;;;19.70;99.90;;;;;;5065685;28;20036;-69
2023/10/21 09:19:05;;;;;;;46.22;41.42;;;19.80;99.90;;;;;;5066455;28;20089;-69
2023/10/21 09:21:41;;;;;;;45.03;40.45;;;20.00;99.90;;;;;;5066068;28;20037;-70
2023/10/21 09:24:10;;;;;;;47.10;39.83;;;20.00;99.90;;;;;;5062519;28;20040;-67
2023/10/21 09:26:38;;;;;;;44.53;40.00;;;20.20;99.90;;;;;;5066385;28;20383;-67
2023/10/21 09:29:05;;;;;;;44.95;40.22;;;20.00;99.90;;;;;;5065257;28;20049;-67
2023/10/21 09:31:58;;;;;;;44.08;39.33;;;20.10;99.90;;;;;;5066443;28;20132;-67
2023/10/21 09:34:27;;;;;;;43.72;39.17;;;20.00;99.90;;;;;;5061815;28;20057;-67
2023/10/21 09:36:58;;;;;;;46.42;37.53;;;20.20;99.90;;;;;;5064875;28;20402;-68
2023/10/21 09:39:26;;;;;;;42.15;37.63;;;20.00;99.90;;;;;;5064490;28;20036;-67
2023/10/21 09:41:52;;;;;;;41.70;37.25;;;20.00;99.90;;;;;;5064640;28;20099;-67
2023/10/21 09:44:18;;;;;;;46.58;37.25;;;20.10;99.90;;;;;;5065697;28;20052;-67
2023/10/21 09:46:44;;;;;;;40.10;35.75;;;20.20;99.90;;;;;;5061845;28;20773;-68
2023/10/21 09:49:13;;;;;;;42.83;38.17;;;20.20;99.90;;;;;;5063248;28;20421;-68
2023/10/21 09:51:50;;;;;;;42.47;36.97;;;20.10;99.90;;;;;;5058699;28;20033;-67
2023/10/21 09:54:22;;;;;;;42.97;36.90;;;20.00;99.90;;;;;;5064144;28;20171;-67
2023/10/21 09:56:49;;;;;;;41.22;36.72;;;20.10;99.90;;;;;;5061181;28;20048;-67
2023/10/21 09:59:15;;;;;;;44.97;37.50;;;19.90;99.90;;;;;;5062038;28;20143;-67
2023/10/21 10:01:42;;;;;;;43.88;35.28;;;20.10;99.90;;;;;;5064099;28;20032;-67
2023/10/21 10:04:10;;;;;;;37.10;33.10;;;19.90;99.90;;;;;;5065230;28;20043;-65
2023/10/21 10:06:37;;;;;;;34.00;30.77;;;19.90;99.90;;;;;;5063179;28;20441;-65
2023/10/21 10:09:06;;;;;;;33.55;30.00;;;20.30;99.90;;;;;;5057091;28;20047;-66
2023/10/21 10:11:33;;;;;;;33.45;30.08;;;20.30;99.90;;;;;;5063819;28;20044;-65
2023/10/21 10:14:00;;;;;;;35.63;31.90;;;19.40;99.90;;;;;;5059105;28;20380;-65
2023/10/21 10:16:27;;;;;;;32.65;29.55;;;19.80;99.90;;;;;;5064884;28;20438;-64
2023/10/21 10:18:55;;;;;;;34.30;31.20;;;19.50;99.90;;;;;;5064389;28;20044;-64
2023/10/21 10:21:21;;;;;;;35.75;32.08;;;20.40;99.90;;;;;;5066296;28;20169;-65
2023/10/21 10:23:51;;;;;;;35.03;31.70;;;20.30;99.90;;;;;;5064873;28;20394;-65
2023/10/21 10:26:37;;;;;;;35.95;32.30;;;20.40;99.90;;;;;;5059800;28;20442;-65
2023/10/21 10:29:25;;;;;;;32.70;29.73;;;20.30;99.90;;;;;;5060674;28;20047;-64
2023/10/21 10:32:10;;;;;;;36.22;32.30;;;19.80;99.90;;;;;;5062308;28;20041;-65
2023/10/21 10:34:41;;;;;;;35.28;32.03;;;19.60;99.90;;;;;;5061399;28;20068;-62
2023/10/21 10:37:24;;;;;;;34.08;30.98;;;20.40;99.90;;;;;;5062528;28;20083;-64
2023/10/21 10:39:49;;;;;;;34.20;30.73;;;20.20;99.90;;;;;;5066063;28;20105;-65
2023/10/21 10:42:15;;;;;;;35.15;31.55;;;20.10;99.90;;;;;;5065139;28;20399;-65
2023/10/21 10:44:42;;;;;;;33.83;30.42;;;19.60;99.90;;;;;;5065968;28;20048;-65
2023/10/21 10:47:09;;;;;;;33.63;30.55;;;19.60;99.90;;;;;;5063139;28;20167;-65
2023/10/21 10:49:55;;;;;;;34.05;30.85;;;19.50;99.90;;;;;;5064252;28;20037;-64
2023/10/21 10:52:28;;;;;;;31.70;28.85;;;20.10;99.90;;;;;;5062523;28;20136;-65
2023/10/21 10:54:54;;;;;;;33.17;30.08;;;19.60;99.90;;;;;;5065846;28;20036;-66
2023/10/21 10:57:20;;;;;;;31.40;28.60;;;19.90;99.90;;;;;;5063711;28;20142;-64
2023/10/21 10:59:47;;;;;;;33.10;29.83;;;19.60;99.90;;;;;;5065441;28;20047;-64
2023/10/21 11:02:14;;;;;;;34.22;30.83;;;19.90;99.90;;;;;;5064033;28;20044;-64
2023/10/21 11:04:46;;;;;;;33.38;30.15;;;20.70;99.90;;;;;;5066732;28;20058;-65
2023/10/21 11:07:12;;;;;;;34.88;31.67;;;20.50;99.90;;;;;;5064210;28;20140;-65
2023/10/21 11:09:38;;;;;;;34.80;31.52;;;20.00;99.90;;;;;;5063732;28;20120;-63
2023/10/21 11:12:03;;;;;;;35.10;31.55;;;20.20;99.90;;;;;;5064071;28;20107;-64
2023/10/21 11:14:29;;;;;;;35.35;31.95;;;20.20;99.90;;;;;;5064797;28;20033;-66
2023/10/21 11:16:55;;;;;;;34.00;30.80;;;20.20;99.90;;;;;;5063553;28;20063;-66
2023/10/21 11:19:22;;;;;;;34.80;31.40;;;20.00;99.90;;;;;;5057791;28;20052;-66
2023/10/21 11:21:51;;;;;;;32.92;29.70;;;20.00;99.90;;;;;;5064511;28;20076;-66
2023/10/21 11:24:19;;;;;;;34.03;30.73;;;20.00;99.90;;;;;;5065713;28;20051;-66
2023/10/21 11:26:45;;;;;;;33.75;30.33;;;19.90;99.90;;;;;;5064882;28;20532;-66
2023/10/21 11:29:11;;;;;;;35.45;31.83;;;20.20;99.90;;;;;;5064132;28;20078;-66
2023/10/21 11:31:37;;;;;;;35.00;31.60;;;19.60;99.90;;;;;;5068592;28;20127;-66
2023/10/21 11:34:12;;;;;;;35.58;31.92;;;19.80;99.90;;;;;;5067678;28;20139;-66
2023/10/21 11:36:40;;;;;;;34.95;31.45;;;19.90;99.90;;;;;;5066967;28;20110;-66
2023/10/21 11:39:13;;;;;;;34.65;30.98;;;19.90;99.90;;;;;;5067238;28;20032;-66
2023/10/21 11:41:46;;;;;;;34.40;30.90;;;19.70;99.90;;;;;;5064869;28;20461;-66
2023/10/21 11:44:12;;;;;;;33.05;29.95;;;19.70;99.90;;;;;;5068661;28;20467;-66
2023/10/21 11:46:38;;;;;;;33.05;29.80;;;19.70;99.90;;;;;;5065189;28;20137;-66
2023/10/21 11:49:13;;;;;;;29.38;26.88;;;19.70;99.90;;;;;;5058483;28;20042;-66
2023/10/21 11:51:42;;;;;;;30.02;27.15;;;19.90;99.90;;;;;;5067664;28;20051;-66
2023/10/21 11:54:09;;;;;;;27.55;25.15;;;19.80;99.90;;;;;;5068802;28;20064;-66
2023/10/21 12:05:19;;;;;;;28.38;26.02;;;20.30;99.90;;;;;;5069062;28;20576;-70
2023/10/21 12:07:49;;;;;;;28.08;25.70;;;20.10;99.90;;;;;;5067452;28;20084;-71
2023/10/21 12:10:44;;;;;;;28.70;26.25;;;20.20;99.90;;;;;;5065897;28;20494;-70
2023/10/21 12:26:38;;;;;;;26.50;24.30;;;20.80;99.90;;;;;;5068021;28;20083;-63
2023/10/21 12:32:20;;;;;;;27.00;24.63;;;20.50;99.90;;;;;;5063170;28;20493;-64
2023/10/21 12:37:20;;;;;;;28.70;25.98;;;20.70;99.90;;;;;;5067429;28;20040;-62
2023/10/21 12:42:35;;;;;;;26.05;23.48;;;20.80;99.90;;;;;;5066223;28;20051;-64
2023/10/21 12:45:08;;;;;;;25.63;23.33;;;20.60;99.90;;;;;;5048714;28;20541;-64
2023/10/21 12:47:34;;;;;;;24.55;22.23;;;20.60;99.90;;;;;;5063060;28;20090;-64
2023/10/21 12:49:59;;;;;;;23.48;21.40;;;20.60;99.90;;;;;;5065212;28;20049;-63
2023/10/21 12:52:25;;;;;;;24.80;22.60;;;20.70;99.90;;;;;;5080777;28;20043;-64
2023/10/21 12:54:53;;;;;;;26.38;23.75;;;20.70;99.90;;;;;;5066238;28;20040;-63
2023/10/21 12:57:20;;;;;;;28.20;25.40;;;20.70;99.90;;;;;;5065136;28;20147;-63
2023/10/21 12:59:46;;;;;;;27.95;25.08;;;20.70;99.90;;;;;;5051228;28;20650;-63